createdAt,value
2017-06-18T00:01:33.811Z,6.90
2017-06-18T00:04:01.398Z,7.20
2017-06-18T00:06:28.968Z,7.70
2017-06-18T00:08:56.500Z,8.47
2017-06-18T00:11:24.064Z,7.40
2017-06-18T00:13:51.630Z,9.00
2017-06-18T00:16:19.223Z,7.87
2017-06-18T00:18:47.528Z,8.10
2017-06-18T00:21:15.081Z,8.23
2017-06-18T00:23:42.683Z,8.20
2017-06-18T00:26:10.247Z,8.50
2017-06-18T00:28:37.801Z,8.60
2017-06-18T00:31:05.375Z,8.67
2017-06-18T00:33:32.967Z,9.50
2017-06-18T00:36:01.277Z,9.77
2017-06-18T00:38:28.877Z,9.67
2017-06-18T00:40:56.411Z,10.43
2017-06-18T00:43:23.955Z,9.30
2017-06-18T00:45:51.631Z,9.20
2017-06-18T00:48:19.162Z,9.20
2017-06-18T00:50:46.703Z,9.10
2017-06-18T00:53:15.230Z,8.60
2017-06-18T00:55:42.824Z,9.40
2017-06-18T00:58:10.677Z,10.13
2017-06-18T01:00:38.246Z,9.30
2017-06-18T01:03:05.786Z,9.40
2017-06-18T01:05:33.324Z,11.50
2017-06-18T01:08:00.923Z,10.40
2017-06-18T01:10:28.698Z,10.80
2017-06-18T01:12:56.242Z,10.70
2017-06-18T01:15:23.797Z,11.43
2017-06-18T01:17:51.359Z,11.27
2017-06-18T01:20:18.976Z,11.43
2017-06-18T01:22:46.518Z,11.07
2017-06-18T01:25:14.831Z,10.00
2017-06-18T01:27:42.409Z,10.43
2017-06-18T01:30:09.951Z,11.47
2017-06-18T01:32:37.535Z,10.63
2017-06-18T01:35:05.085Z,10.87
2017-06-18T01:37:32.631Z,11.20
2017-06-18T01:40:00.211Z,10.87
2017-06-18T01:42:27.749Z,10.83
2017-06-18T01:44:55.309Z,11.10
2017-06-18T01:47:22.867Z,11.50
2017-06-18T01:49:50.417Z,10.70
2017-06-18T01:52:18.001Z,10.57
2017-06-18T01:54:45.559Z,11.63
2017-06-18T01:57:13.209Z,9.70
2017-06-18T01:59:40.762Z,9.77
2017-06-18T02:02:08.298Z,10.13
2017-06-18T02:04:35.876Z,11.70
2017-06-18T02:07:03.422Z,9.83
2017-06-18T02:09:31.022Z,10.47
2017-06-18T02:11:58.686Z,11.30
2017-06-18T02:14:26.332Z,10.57
2017-06-18T02:16:53.898Z,10.17
2017-06-18T02:19:21.434Z,10.63
2017-06-18T02:21:48.970Z,11.50
2017-06-18T02:24:17.405Z,10.80
2017-06-18T02:26:44.961Z,10.90
2017-06-18T02:29:12.501Z,11.10
2017-06-18T02:31:40.074Z,11.90
2017-06-18T02:34:07.727Z,10.90
2017-06-18T02:36:35.265Z,11.50
2017-06-18T02:39:02.967Z,11.00
2017-06-18T02:41:30.519Z,11.97
2017-06-18T02:43:58.153Z,12.30
2017-06-18T02:46:25.709Z,11.43
2017-06-18T02:48:53.251Z,10.80
2017-06-18T02:51:21.591Z,11.67
2017-06-18T02:53:49.166Z,11.60
2017-06-18T02:56:16.710Z,11.03
2017-06-18T02:58:44.284Z,11.70
2017-06-18T03:01:11.834Z,12.47
2017-06-18T03:03:39.412Z,11.80
2017-06-18T03:06:07.727Z,12.50
2017-06-18T03:08:35.306Z,12.40
2017-06-18T03:11:02.966Z,12.80
2017-06-18T03:13:30.602Z,13.93
2017-06-18T03:15:58.142Z,13.00
2017-06-18T03:18:25.848Z,13.50
2017-06-18T03:20:59.086Z,14.33
2017-06-18T03:23:32.343Z,13.90
2017-06-18T03:25:59.873Z,13.57
2017-06-18T03:28:27.413Z,13.90
2017-06-18T03:30:55.012Z,14.83
2017-06-18T03:33:22.563Z,14.20
2017-06-18T03:35:50.127Z,14.20
2017-06-18T03:38:17.704Z,14.00
2017-06-18T03:40:45.289Z,13.07
2017-06-18T03:43:12.847Z,14.20
2017-06-18T03:45:40.423Z,12.90
2017-06-18T03:48:08.729Z,12.63
2017-06-18T03:50:36.291Z,12.00
2017-06-18T03:53:03.867Z,11.60
2017-06-18T03:55:31.421Z,13.20
2017-06-18T03:57:59.005Z,13.23
2017-06-18T04:00:26.597Z,12.73
2017-06-18T04:02:54.906Z,12.80
2017-06-18T04:05:22.470Z,13.07
2017-06-18T04:07:50.038Z,14.47
2017-06-18T04:10:17.583Z,13.60
2017-06-18T04:12:45.136Z,13.77
2017-06-18T04:15:12.699Z,14.20
2017-06-18T04:17:40.246Z,13.10
2017-06-18T04:20:07.785Z,12.27
2017-06-18T04:22:36.132Z,13.50
2017-06-18T04:25:03.670Z,14.77
2017-06-18T04:27:31.227Z,13.00
2017-06-18T04:29:58.807Z,12.30
2017-06-18T04:32:26.343Z,12.30
2017-06-18T04:34:53.883Z,12.67
2017-06-18T04:37:21.458Z,12.20
2017-06-18T04:39:49.033Z,12.30
2017-06-18T04:42:16.585Z,12.60
2017-06-18T04:44:44.148Z,13.07
2017-06-18T04:47:11.732Z,11.13
2017-06-18T04:49:39.305Z,11.77
2017-06-18T04:52:07.089Z,11.80
2017-06-18T04:54:35.475Z,11.57
2017-06-18T04:57:03.807Z,11.33
2017-06-18T04:59:31.354Z,11.57
2017-06-18T05:01:58.899Z,11.30
2017-06-18T05:04:26.471Z,11.43
2017-06-18T05:06:54.026Z,11.33
2017-06-18T05:09:21.563Z,11.40
2017-06-18T05:11:49.137Z,11.20
2017-06-18T05:14:16.686Z,11.87
2017-06-18T05:16:44.238Z,11.13
2017-06-18T05:19:11.802Z,12.20
2017-06-18T05:21:39.342Z,11.20
2017-06-18T05:24:06.898Z,10.53
2017-06-18T05:26:35.248Z,9.60
2017-06-18T05:29:02.788Z,9.97
2017-06-18T05:31:30.355Z,11.30
2017-06-18T05:33:57.956Z,10.33
2017-06-18T05:36:25.509Z,10.27
2017-06-18T05:38:53.842Z,9.57
2017-06-18T05:41:21.419Z,9.90
2017-06-18T05:43:48.975Z,9.40
2017-06-18T05:46:16.524Z,9.60
2017-06-18T05:48:44.089Z,9.77
2017-06-18T05:51:11.642Z,9.87
2017-06-18T05:53:39.233Z,10.00
2017-06-18T05:56:06.779Z,10.00
2017-06-18T05:58:34.421Z,9.10
2017-06-18T06:01:01.991Z,9.17
2017-06-18T06:03:29.529Z,8.67
2017-06-18T06:05:57.057Z,8.40
2017-06-18T06:08:24.614Z,9.10
2017-06-18T06:10:52.162Z,8.57
2017-06-18T06:13:20.505Z,9.10
2017-06-18T06:15:48.038Z,8.10
2017-06-18T06:18:15.698Z,8.70
2017-06-18T06:20:43.398Z,8.00
2017-06-18T06:23:10.937Z,9.20
2017-06-18T06:25:38.582Z,7.40
2017-06-18T06:28:06.142Z,8.10
2017-06-18T06:30:33.674Z,7.43
2017-06-18T06:33:01.230Z,6.70
2017-06-18T06:35:28.765Z,7.07
2017-06-18T06:37:57.061Z,6.50
2017-06-18T06:40:25.390Z,7.67
2017-06-18T06:42:52.956Z,6.17
2017-06-18T06:45:20.512Z,5.53
2017-06-18T06:47:48.128Z,6.80
2017-06-18T06:50:15.913Z,5.77
2017-06-18T06:52:43.473Z,5.60
2017-06-18T06:55:11.005Z,5.30
2017-06-18T06:57:38.547Z,5.53
2017-06-18T07:00:06.869Z,6.13
2017-06-18T07:02:34.427Z,5.60
2017-06-18T07:05:01.957Z,5.30
2017-06-18T07:07:29.519Z,5.60
2017-06-18T07:09:57.055Z,5.50
2017-06-18T07:12:25.400Z,4.90
2017-06-18T07:14:53.007Z,4.80
2017-06-18T07:17:20.559Z,5.17
2017-06-18T07:19:48.859Z,4.90
2017-06-18T07:22:16.431Z,4.90
2017-06-18T07:24:44.011Z,4.43
2017-06-18T07:27:11.656Z,5.17
2017-06-18T07:29:39.418Z,6.00
2017-06-18T07:32:06.952Z,4.53
2017-06-18T07:34:34.490Z,4.40
2017-06-18T07:37:02.810Z,4.47
2017-06-18T07:39:30.418Z,4.30
2017-06-18T07:41:57.990Z,4.30
2017-06-18T07:44:26.320Z,4.03
2017-06-18T07:46:53.855Z,4.20
2017-06-18T07:49:21.409Z,4.37
2017-06-18T07:51:48.954Z,3.73
2017-06-18T07:54:16.553Z,3.70
2017-06-18T07:56:44.218Z,3.20
2017-06-18T07:59:11.774Z,4.30
2017-06-18T08:01:39.311Z,3.73
2017-06-18T08:04:06.871Z,4.47
2017-06-18T08:06:34.405Z,3.50
2017-06-18T08:09:03.031Z,3.70
2017-06-18T08:11:30.596Z,4.43
2017-06-18T08:13:58.445Z,9.47
2017-06-18T08:16:26.311Z,14.30
2017-06-18T08:18:54.011Z,10.07
2017-06-18T08:21:22.657Z,3.03
2017-06-18T08:23:50.420Z,2.97
2017-06-18T08:26:18.228Z,3.27
2017-06-18T08:28:46.766Z,3.33
2017-06-18T08:31:14.406Z,3.13
2017-06-18T08:33:42.084Z,2.87
2017-06-18T08:36:09.848Z,2.93
2017-06-18T08:38:37.775Z,2.77
2017-06-18T08:41:05.523Z,2.83
2017-06-18T08:43:33.284Z,3.10
2017-06-18T08:46:01.749Z,2.70
2017-06-18T08:48:29.476Z,2.90
2017-06-18T08:50:57.141Z,2.50
2017-06-18T08:53:24.803Z,2.77
2017-06-18T08:55:52.485Z,2.50
2017-06-18T08:58:20.177Z,3.30
2017-06-18T09:00:48.823Z,2.77
2017-06-18T09:03:16.561Z,2.43
2017-06-18T09:05:44.151Z,2.50
2017-06-18T09:08:11.855Z,2.50
2017-06-18T09:10:40.306Z,1.90
2017-06-18T09:13:08.047Z,2.00
2017-06-18T09:15:35.836Z,2.27
2017-06-18T09:18:04.191Z,2.23
2017-06-18T09:20:31.726Z,2.03
2017-06-18T09:22:59.255Z,1.80
2017-06-18T09:25:27.582Z,1.97
2017-06-18T09:27:55.136Z,1.40
2017-06-18T09:30:22.678Z,2.40
2017-06-18T09:32:50.227Z,1.47
2017-06-18T09:35:17.776Z,1.20
2017-06-18T09:37:46.108Z,1.30
2017-06-18T09:40:13.637Z,1.10
2017-06-18T09:42:41.185Z,1.27
2017-06-18T09:45:08.763Z,1.60
2017-06-18T09:47:36.304Z,1.93
2017-06-18T09:50:03.852Z,1.80
2017-06-18T09:52:31.429Z,1.70
2017-06-18T09:54:58.967Z,1.80
2017-06-18T09:57:26.507Z,2.10
2017-06-18T09:59:54.069Z,1.60
2017-06-18T10:02:22.371Z,1.97
2017-06-18T10:04:49.909Z,1.80
2017-06-18T10:07:18.252Z,1.70
2017-06-18T10:09:45.822Z,1.90
2017-06-18T10:12:13.363Z,1.70
2017-06-18T10:14:40.895Z,2.50
2017-06-18T10:17:08.453Z,1.70
2017-06-18T10:19:35.987Z,1.70
2017-06-18T10:22:09.198Z,1.93
2017-06-18T10:24:36.731Z,1.83
2017-06-18T10:27:04.278Z,2.27
2017-06-18T10:29:32.614Z,2.27
2017-06-18T10:32:00.170Z,1.80
2017-06-18T10:34:27.708Z,1.73
2017-06-18T10:36:55.282Z,1.80
2017-06-18T10:39:22.836Z,1.87
2017-06-18T10:41:50.410Z,1.97
2017-06-18T10:44:17.973Z,1.40
2017-06-18T10:46:45.546Z,1.77
2017-06-18T10:49:13.092Z,1.43
2017-06-18T10:51:40.633Z,1.80
2017-06-18T10:54:08.197Z,1.93
2017-06-18T10:56:35.766Z,2.20
2017-06-18T10:59:03.308Z,2.00
2017-06-18T11:01:30.841Z,3.77
2017-06-18T11:03:58.430Z,4.53
2017-06-18T11:06:25.965Z,1.87
2017-06-18T11:08:53.537Z,2.00
2017-06-18T11:11:21.101Z,2.00
2017-06-18T11:13:48.634Z,1.73
2017-06-18T11:16:16.186Z,1.53
2017-06-18T11:18:43.754Z,1.50
2017-06-18T11:21:11.293Z,2.30
2017-06-18T11:23:38.832Z,1.60
2017-06-18T11:26:06.410Z,1.80
2017-06-18T11:28:33.965Z,1.70
2017-06-18T11:31:02.266Z,1.60
2017-06-18T11:33:29.845Z,1.60
2017-06-18T11:35:57.378Z,1.53
2017-06-18T11:38:24.914Z,1.27
2017-06-18T11:40:53.256Z,1.50
2017-06-18T11:43:20.796Z,1.30
2017-06-18T11:45:48.330Z,1.50
2017-06-18T11:48:15.894Z,1.30
2017-06-18T11:50:44.781Z,0.90
2017-06-18T11:53:12.324Z,1.40
2017-06-18T11:55:40.654Z,1.03
2017-06-18T11:58:08.234Z,1.00
2017-06-18T12:00:35.779Z,1.10
2017-06-18T12:03:03.313Z,1.10
2017-06-18T12:05:30.885Z,1.10
2017-06-18T12:07:58.537Z,0.90
2017-06-18T12:10:26.071Z,9.43
2017-06-18T12:12:53.651Z,1.20
2017-06-18T12:15:21.189Z,1.33
2017-06-18T12:17:48.722Z,1.00
2017-06-18T12:20:17.073Z,1.20
2017-06-18T12:22:44.705Z,1.00
2017-06-18T12:25:12.231Z,1.20
2017-06-18T12:27:40.562Z,1.30
2017-06-18T12:30:08.095Z,1.20
2017-06-18T12:32:35.628Z,1.30
2017-06-18T12:35:03.538Z,0.90
2017-06-18T12:37:31.063Z,1.20
2017-06-18T12:39:58.600Z,4.03
2017-06-18T12:42:26.270Z,1.20
2017-06-18T12:44:53.802Z,1.12
2017-06-18T12:47:22.682Z,1.27
2017-06-18T12:49:50.230Z,1.12
2017-06-18T12:52:17.768Z,1.23
2017-06-18T12:54:45.322Z,1.10
2017-06-18T12:57:12.878Z,1.33
2017-06-18T12:59:40.455Z,1.00
2017-06-18T13:02:08.100Z,1.30
2017-06-18T13:04:35.658Z,1.00
2017-06-18T13:07:03.217Z,1.10
2017-06-18T13:09:30.757Z,0.90
2017-06-18T13:11:58.365Z,1.20
2017-06-18T13:14:26.028Z,1.10
2017-06-18T13:16:53.561Z,1.50
2017-06-18T13:19:21.126Z,1.45
2017-06-18T13:21:48.777Z,0.98
2017-06-18T13:24:16.311Z,6.15
2017-06-18T13:26:43.919Z,1.52
2017-06-18T13:29:11.467Z,1.20
2017-06-18T13:31:38.999Z,1.30
2017-06-18T13:34:06.556Z,1.20
2017-06-18T13:36:34.088Z,1.23
2017-06-18T13:39:02.575Z,1.10
2017-06-18T13:41:30.875Z,1.10
2017-06-18T13:43:58.410Z,1.20
2017-06-18T13:46:26.743Z,1.03
2017-06-18T13:48:54.384Z,1.30
2017-06-18T13:51:21.920Z,1.13
2017-06-18T13:53:49.822Z,1.27
2017-06-18T13:56:17.386Z,1.42
2017-06-18T13:58:44.928Z,1.30
2017-06-18T14:01:12.506Z,0.80
2017-06-18T14:03:40.059Z,0.90
2017-06-18T14:06:07.623Z,1.00
2017-06-18T14:08:35.186Z,1.00
2017-06-18T14:11:02.734Z,1.10
2017-06-18T14:13:30.265Z,7.73
2017-06-18T14:15:57.845Z,1.37
2017-06-18T14:18:25.381Z,1.10
2017-06-18T14:20:52.933Z,1.20
2017-06-18T14:23:20.501Z,1.37
2017-06-18T14:25:48.041Z,1.40
2017-06-18T14:28:15.579Z,1.40
2017-06-18T14:30:43.891Z,1.20
2017-06-18T14:33:11.455Z,1.43
2017-06-18T14:35:38.993Z,1.27
2017-06-18T14:38:06.552Z,1.05
2017-06-18T14:40:34.169Z,1.00
2017-06-18T14:43:01.718Z,1.20
2017-06-18T14:45:29.364Z,1.08
2017-06-18T14:47:56.918Z,1.48
2017-06-18T14:50:24.458Z,1.40
2017-06-18T14:52:52.024Z,1.27
2017-06-18T14:55:19.796Z,1.20
2017-06-18T14:57:49.014Z,1.23
2017-06-18T15:00:16.578Z,1.05
2017-06-18T15:02:44.114Z,1.30
2017-06-18T15:05:11.646Z,5.50
2017-06-18T15:07:39.229Z,13.60
2017-06-18T15:10:06.779Z,1.27
2017-06-18T15:12:34.348Z,1.00
2017-06-18T15:15:01.930Z,1.00
2017-06-18T15:17:29.471Z,1.23
2017-06-18T15:19:57.009Z,1.02
2017-06-18T15:22:24.577Z,1.10
2017-06-18T15:24:52.127Z,1.17
2017-06-18T15:27:19.669Z,1.45
2017-06-18T15:29:47.255Z,1.02
2017-06-18T15:32:14.795Z,1.20
2017-06-18T15:34:42.330Z,1.00
2017-06-18T15:37:09.891Z,1.33
2017-06-18T15:39:37.424Z,1.30
2017-06-18T15:42:04.969Z,1.33
2017-06-18T15:44:32.518Z,1.10
2017-06-18T15:47:00.050Z,1.05
2017-06-18T15:49:27.622Z,1.15
2017-06-18T15:51:55.173Z,1.42
2017-06-18T15:54:22.740Z,1.85
2017-06-18T15:56:50.396Z,1.10
2017-06-18T15:59:18.014Z,3.47
2017-06-18T16:01:45.580Z,2.78
2017-06-18T16:04:13.142Z,1.30
2017-06-18T16:06:40.719Z,1.30
2017-06-18T16:09:08.293Z,1.05
2017-06-18T16:11:35.865Z,1.30
2017-06-18T16:14:03.423Z,1.30
2017-06-18T16:16:31.019Z,1.70
2017-06-18T16:18:58.571Z,1.80
2017-06-18T16:21:26.903Z,2.40
2017-06-18T16:23:54.477Z,5.20
2017-06-18T16:26:22.015Z,1.30
2017-06-18T16:28:49.555Z,6.20
2017-06-18T16:31:17.119Z,1.70
2017-06-18T16:33:44.661Z,1.87
2017-06-18T16:36:12.225Z,1.70
2017-06-18T16:38:39.821Z,1.50
2017-06-18T16:41:07.372Z,2.00
2017-06-18T16:43:34.970Z,1.60
2017-06-18T16:46:02.581Z,1.57
2017-06-18T16:48:30.121Z,1.90
2017-06-18T16:50:57.670Z,1.70
2017-06-18T16:53:26.001Z,1.80
2017-06-18T16:55:53.541Z,1.80
2017-06-18T16:58:21.080Z,1.47
2017-06-18T17:00:48.632Z,1.87
2017-06-18T17:03:16.216Z,1.80
2017-06-18T17:05:43.836Z,1.40
2017-06-18T17:08:11.386Z,1.47
2017-06-18T17:10:38.948Z,1.80
2017-06-18T17:13:07.249Z,1.80
2017-06-18T17:15:34.813Z,3.53
2017-06-18T17:18:02.361Z,3.13
2017-06-18T17:20:29.895Z,1.67
2017-06-18T17:22:58.215Z,1.93
2017-06-18T17:25:25.755Z,1.67
2017-06-18T17:27:53.318Z,2.00
2017-06-18T17:30:20.859Z,2.10
2017-06-18T17:32:49.173Z,1.90
2017-06-18T17:35:16.757Z,1.60
2017-06-18T17:37:44.294Z,1.70
2017-06-18T17:40:11.833Z,1.77
2017-06-18T17:45:22.529Z,1.90
2017-06-18T17:47:50.123Z,11.87
2017-06-18T17:50:17.974Z,5.30
2017-06-18T17:52:45.534Z,1.90
2017-06-18T17:55:13.084Z,1.93
2017-06-18T17:57:40.646Z,2.13
2017-06-18T18:00:08.190Z,1.60
2017-06-18T18:02:35.780Z,1.87
2017-06-18T18:05:03.326Z,2.00
2017-06-18T18:07:30.876Z,2.00
2017-06-18T18:09:58.445Z,2.00
2017-06-18T18:12:25.986Z,1.73
2017-06-18T18:14:53.535Z,1.97
2017-06-18T18:17:21.217Z,1.70
2017-06-18T18:19:48.796Z,1.70
2017-06-18T18:22:16.333Z,2.13
2017-06-18T18:24:43.912Z,2.70
2017-06-18T18:27:11.451Z,5.80
2017-06-18T18:29:39.065Z,4.90
2017-06-18T18:32:06.620Z,2.90
2017-06-18T18:34:34.951Z,3.27
2017-06-18T18:37:02.533Z,2.30
2017-06-18T18:39:30.069Z,3.40
2017-06-18T18:41:57.627Z,2.10
2017-06-18T18:44:25.200Z,2.50
2017-06-18T18:46:52.767Z,4.10
2017-06-18T18:49:20.620Z,4.57
2017-06-18T18:51:48.187Z,4.80
2017-06-18T18:54:15.721Z,4.40
2017-06-18T18:56:43.263Z,4.50
2017-06-18T18:59:11.169Z,3.50
2017-06-18T19:01:38.720Z,3.00
2017-06-18T19:04:06.258Z,2.63
2017-06-18T19:06:33.822Z,14.40
2017-06-18T19:09:01.374Z,16.10
2017-06-18T19:11:28.954Z,16.50
2017-06-18T19:13:56.638Z,7.40
2017-06-18T19:16:24.190Z,4.37
2017-06-18T19:18:52.026Z,3.50
2017-06-18T19:21:19.562Z,4.53
2017-06-18T19:23:47.102Z,3.70
2017-06-18T19:26:15.543Z,3.60
2017-06-18T19:28:43.093Z,5.57
2017-06-18T19:31:10.752Z,10.90
2017-06-18T19:33:38.319Z,9.93
2017-06-18T19:36:05.871Z,5.27
2017-06-18T19:38:33.411Z,4.30
2017-06-18T19:41:00.979Z,4.07
2017-06-18T19:43:28.525Z,3.67
2017-06-18T19:45:56.111Z,3.50
2017-06-18T19:48:23.682Z,4.00
2017-06-18T19:50:51.240Z,3.77
2017-06-18T19:53:18.815Z,3.60
2017-06-18T19:55:46.342Z,4.30
2017-06-18T19:58:13.891Z,5.10
2017-06-18T20:00:41.494Z,9.30
2017-06-18T20:03:09.844Z,7.77
2017-06-18T20:05:37.433Z,8.57
2017-06-18T20:08:05.805Z,8.83
2017-06-18T20:10:33.350Z,4.80
2017-06-18T20:13:00.942Z,3.70
2017-06-18T20:15:28.490Z,3.50
2017-06-18T20:17:56.812Z,3.20
2017-06-18T20:20:24.378Z,3.53
2017-06-18T20:22:51.918Z,3.37
2017-06-18T20:25:19.461Z,3.80
2017-06-18T20:27:47.031Z,3.70
2017-06-18T20:30:14.581Z,3.97
2017-06-18T20:32:42.117Z,5.03
2017-06-18T20:35:09.685Z,4.50
2017-06-18T20:37:37.993Z,4.70
2017-06-18T20:40:05.535Z,4.83
2017-06-18T20:42:33.097Z,4.10
2017-06-18T20:45:00.679Z,4.20
2017-06-18T20:47:28.211Z,4.47
2017-06-18T20:49:55.748Z,4.23
2017-06-18T20:52:24.076Z,4.67
2017-06-18T20:54:51.727Z,4.37
2017-06-18T20:57:19.331Z,4.43
2017-06-18T20:59:47.664Z,4.50
2017-06-18T21:02:15.194Z,4.27
2017-06-18T21:04:42.851Z,4.73
2017-06-18T21:07:10.404Z,4.80
2017-06-18T21:09:38.702Z,4.10
2017-06-18T21:12:06.266Z,4.07
2017-06-18T21:14:33.938Z,4.27
2017-06-18T21:17:01.462Z,4.50
2017-06-18T21:19:29.760Z,3.90
2017-06-18T21:21:57.332Z,4.07
2017-06-18T21:24:24.892Z,13.47
2017-06-18T21:26:52.449Z,16.37
2017-06-18T21:29:20.022Z,4.80
2017-06-18T21:31:47.550Z,4.00
2017-06-18T21:34:15.133Z,4.43
2017-06-18T21:36:42.667Z,4.33
2017-06-18T21:39:10.249Z,4.30
2017-06-18T21:41:37.803Z,4.10
2017-06-18T21:44:05.321Z,4.73
2017-06-18T21:46:33.619Z,4.10
2017-06-18T21:49:01.169Z,4.47
2017-06-18T21:51:28.695Z,5.00
2017-06-18T21:53:56.419Z,5.43
2017-06-18T21:56:23.963Z,4.63
2017-06-18T21:58:51.541Z,4.60
2017-06-18T22:01:19.079Z,4.00
2017-06-18T22:03:46.625Z,4.33
2017-06-18T22:06:14.158Z,3.90
2017-06-18T22:08:41.672Z,4.63
2017-06-18T22:11:09.551Z,4.47
2017-06-18T22:13:37.072Z,4.10
2017-06-18T22:16:04.598Z,4.00
2017-06-18T22:18:32.154Z,4.50
2017-06-18T22:20:59.747Z,4.20
2017-06-18T22:23:27.333Z,3.93
2017-06-18T22:25:54.892Z,4.17
2017-06-18T22:28:22.417Z,4.13
2017-06-18T22:30:50.710Z,4.60
2017-06-18T22:33:19.929Z,4.40
2017-06-18T22:35:47.458Z,4.23
2017-06-18T22:38:15.021Z,4.30
2017-06-18T22:40:42.605Z,4.63
2017-06-18T22:43:10.122Z,4.87
2017-06-18T22:45:38.452Z,4.57
2017-06-18T22:48:06.103Z,4.60
2017-06-18T22:50:33.665Z,4.70
2017-06-18T22:53:01.225Z,4.63
2017-06-18T22:55:28.785Z,5.10
2017-06-18T22:57:56.348Z,4.43
2017-06-18T23:00:23.899Z,4.90
2017-06-18T23:02:51.449Z,5.10
2017-06-18T23:05:19.016Z,4.43
2017-06-18T23:07:47.706Z,5.10
2017-06-18T23:10:15.482Z,4.97
2017-06-18T23:12:43.142Z,5.47
2017-06-18T23:15:10.704Z,5.27
2017-06-18T23:17:38.262Z,5.73
2017-06-18T23:20:05.834Z,4.70
2017-06-18T23:22:33.468Z,5.60
2017-06-18T23:25:01.038Z,5.10
2017-06-18T23:27:28.598Z,5.30
2017-06-18T23:29:56.130Z,4.90
2017-06-18T23:32:23.722Z,5.33
2017-06-18T23:34:51.574Z,5.47
2017-06-18T23:37:19.098Z,5.80
2017-06-18T23:39:47.099Z,6.10
2017-06-18T23:42:14.661Z,6.53
2017-06-18T23:44:42.258Z,7.20
2017-06-18T23:47:09.810Z,6.70
2017-06-18T23:49:37.352Z,7.30
2017-06-18T23:52:04.931Z,7.10
2017-06-18T23:54:33.289Z,7.40
2017-06-18T23:57:00.847Z,6.70
2017-06-18T23:59:28.420Z,7.03
